M I D A S
Marine Information and Data Acquisition System
Tripno 1245 of the Zeeleeuw from 2007-04-16 11:27:28 to 2007-04-16 14:26:46
Back to CruiseResearch ActivitiesStationsMapUnderway DataData graphs

EquipmentUnitsComment
TimeDGPSUTC
LatitudeDGPSDM.mWGS84
LongitudeDGPSDM.mWGS84
HeadingGyrodeg 
SOGDGPSknotsSpeed over ground
COGDGPSdegCourse over ground
DepthEcho soundermeters200 kHz
Missing or incorrect values are displayed as -999
Navigation data collected by the RV Zeeleeuw from 2007-04-16 08:22:18 to 2007-04-16 14:35:22
                                                                                    Next 1000 lines
Time Latitude Longitude Heading SOG COG Depth
2007-04-16 08:22:28 51°13.6 2°56.096 105.5 0.8 280 -999
2007-04-16 08:22:33 51°13.601 2°56.094 106.5 1.1 282 -999
2007-04-16 08:22:38 51°13.601 2°56.091 107 1.4 283 -999
2007-04-16 08:22:43 51°13.602 2°56.087 107.9 1.7 283 -999
2007-04-16 08:22:48 51°13.603 2°56.082 108.5 2 285 -999
2007-04-16 08:22:53 51°13.604 2°56.078 109.4 2.4 285 -999
2007-04-16 08:22:58 51°13.605 2°56.072 109.8 2.7 287 -999
2007-04-16 08:23:03 51°13.606 2°56.065 110.5 3 287 -999
2007-04-16 08:23:08 51°13.608 2°56.058 110.8 3.2 288 -999
2007-04-16 08:23:13 51°13.609 2°56.051 111 3.4 287 -999
2007-04-16 08:23:18 51°13.611 2°56.044 111 3.5 288 -999
2007-04-16 08:23:23 51°13.612 2°56.036 111.1 3.7 287 -999
2007-04-16 08:23:28 51°13.614 2°56.028 111.8 3.8 287 -999
2007-04-16 08:23:33 51°13.615 2°56.02 112.7 3.8 287 -999
2007-04-16 08:23:38 51°13.617 2°56.012 114.3 3.9 288 -999
2007-04-16 08:23:43 51°13.619 2°56.004 115.8 3.9 289 -999
2007-04-16 08:23:48 51°13.621 2°55.995 117.5 3.9 290 -999
2007-04-16 08:23:53 51°13.623 2°55.987 119 3.9 291 -999
2007-04-16 08:23:58 51°13.625 2°55.98 120.7 4 293 -999
2007-04-16 08:24:03 51°13.627 2°55.971 121.9 4 294 -999
2007-04-16 08:24:08 51°13.629 2°55.963 123.4 4.1 296 -999
2007-04-16 08:24:13 51°13.632 2°55.955 124.4 4.1 297 -999
2007-04-16 08:24:18 51°13.634 2°55.947 125.7 4.2 298 -999
2007-04-16 08:24:23 51°13.637 2°55.939 126.5 4.2 299 -999
2007-04-16 08:24:28 51°13.64 2°55.931 127.6 4.2 301 -999
2007-04-16 08:24:33 51°13.643 2°55.923 128.3 4.2 301 -999
2007-04-16 08:24:38 51°13.647 2°55.915 128.7 4.3 303 -999
2007-04-16 08:24:43 51°13.65 2°55.907 129.2 4.5 304 -999
2007-04-16 08:24:48 51°13.654 2°55.899 129.5 4.6 305 -999
2007-04-16 08:24:53 51°13.657 2°55.891 129.8 4.4 306 -999
2007-04-16 08:24:58 51°13.661 2°55.883 129.8 4.2 305 -999
2007-04-16 08:25:03 51°13.664 2°55.876 129.6 4.3 306 -999
2007-04-16 08:25:08 51°13.668 2°55.868 129.4 4.3 306 -999
2007-04-16 08:25:13 51°13.671 2°55.86 129 4.3 306 -999
2007-04-16 08:25:18 51°13.674 2°55.852 128.6 4.2 305 -999
2007-04-16 08:25:23 51°13.678 2°55.845 128.2 4.1 306 -999
2007-04-16 08:25:28 51°13.681 2°55.838 127.6 4 305 -999
2007-04-16 08:25:33 51°13.684 2°55.831 126.7 3.9 305 -999
2007-04-16 08:25:38 51°13.687 2°55.824 126 3.8 304 -999
2007-04-16 08:25:43 51°13.69 2°55.817 124.9 3.7 303 -999
2007-04-16 08:25:48 51°13.692 2°55.81 123.8 3.6 302 -999
2007-04-16 08:25:53 51°13.695 2°55.803 122.6 3.6 301 -999
2007-04-16 08:25:58 51°13.697 2°55.797 121.6 3.5 300 -999
2007-04-16 08:26:03 51°13.699 2°55.79 120.6 3.3 299 -999
2007-04-16 08:26:08 51°13.702 2°55.784 119.7 3.3 298 -999
2007-04-16 08:26:13 51°13.704 2°55.778 119 3.2 297 -999
2007-04-16 08:26:18 51°13.706 2°55.771 118.5 3.1 296 -999
2007-04-16 08:26:23 51°13.707 2°55.766 118.3 3 296 -999
2007-04-16 08:26:28 51°13.709 2°55.76 118.1 2.9 294 -999
2007-04-16 08:26:33 51°13.71 2°55.754 117.7 2.7 294 -999
2007-04-16 08:26:38 51°13.712 2°55.749 117.3 2.5 294 -999
2007-04-16 08:26:43 51°13.713 2°55.745 116.7 2.3 293 -999
2007-04-16 08:26:48 51°13.714 2°55.74 116.1 2.1 292 -999
2007-04-16 08:26:53 51°13.715 2°55.736 115.2 1.9 293 -999
2007-04-16 08:26:58 51°13.716 2°55.733 113.8 1.5 292 -999
2007-04-16 08:27:03 51°13.716 2°55.731 111 1 293 -999
2007-04-16 08:27:08 51°13.717 2°55.73 106.6 0.3 304 -999
2007-04-16 08:27:13 51°13.717 2°55.731 100.8 0.2 68 -999
2007-04-16 08:27:18 51°13.717 2°55.733 93.6 1 90 -999
2007-04-16 08:27:23 51°13.717 2°55.736 86.9 1.4 92 -999
2007-04-16 08:27:28 51°13.717 2°55.739 82 1.4 80 -999
2007-04-16 08:27:33 51°13.718 2°55.742 79.8 1.3 83 -999
2007-04-16 08:27:38 51°13.718 2°55.744 76.9 1 77 -999
2007-04-16 08:27:43 51°13.718 2°55.746 74.2 0.7 86 -999
2007-04-16 08:27:48 51°13.718 2°55.746 72.3 0.2 113 -999
2007-04-16 08:27:53 51°13.717 2°55.745 71.1 0.4 230 -999
2007-04-16 08:27:58 51°13.717 2°55.743 70.3 0.9 240 -999
2007-04-16 08:28:03 51°13.716 2°55.741 69.5 1.3 241 -999
2007-04-16 08:28:08 51°13.715 2°55.738 69 1.5 242 -999
2007-04-16 08:28:13 51°13.714 2°55.735 68.7 1.5 242 -999
2007-04-16 08:28:18 51°13.713 2°55.733 68.2 1.4 241 -999
2007-04-16 08:28:23 51°13.712 2°55.73 66.9 1.2 243 -999
2007-04-16 08:28:28 51°13.712 2°55.729 63.8 0.6 235 -999
2007-04-16 08:28:33 51°13.712 2°55.729 60.5 0.2 237 -999
2007-04-16 08:28:38 51°13.712 2°55.729 57.4 0.1 195 -999
2007-04-16 08:28:43 51°13.712 2°55.729 54.4 0.2 59 -999
2007-04-16 08:28:48 51°13.712 2°55.73 50.9 0.4 63 -999
2007-04-16 08:28:53 51°13.712 2°55.731 47.3 0.6 50 -999
2007-04-16 08:28:58 51°13.713 2°55.732 43.8 0.8 53 -999
2007-04-16 08:29:03 51°13.714 2°55.734 41.5 0.8 43 -999
2007-04-16 08:29:08 51°13.715 2°55.735 39.1 0.7 52 -999
2007-04-16 08:29:13 51°13.715 2°55.736 36.8 0.4 58 -999
2007-04-16 08:29:18 51°13.715 2°55.736 34.8 0.2 152 -999
2007-04-16 08:29:23 51°13.714 2°55.736 33.3 0.6 196 -999
2007-04-16 08:29:28 51°13.713 2°55.735 32 1 199 -999
2007-04-16 08:29:33 51°13.712 2°55.734 31.2 1.2 199 -999
2007-04-16 08:29:38 51°13.71 2°55.733 30.8 1.2 204 -999
2007-04-16 08:29:43 51°13.709 2°55.732 30.5 1.2 199 -999
2007-04-16 08:29:48 51°13.707 2°55.731 30.4 1.1 203 -999
2007-04-16 08:29:53 51°13.706 2°55.73 29.9 1 197 -999
2007-04-16 08:29:58 51°13.705 2°55.73 28.6 0.6 200 -999
2007-04-16 08:30:03 51°13.705 2°55.73 26.1 0.4 181 -999
2007-04-16 08:30:08 51°13.704 2°55.73 23.8 0.1 144 -999
2007-04-16 08:30:13 51°13.704 2°55.73 21.7 0.1 96 -999
2007-04-16 08:30:18 51°13.705 2°55.73 19.4 0.2 44 -999
2007-04-16 08:30:23 51°13.705 2°55.731 17 0.3 39 -999
2007-04-16 08:30:28 51°13.706 2°55.731 14.5 0.4 22 -999
2007-04-16 08:30:33 51°13.706 2°55.732 11.8 0.5 23 -999
2007-04-16 08:30:38 51°13.707 2°55.732 8.9 0.6 16 -999
2007-04-16 08:30:43 51°13.708 2°55.733 5.8 0.7 13 -999
2007-04-16 08:30:48 51°13.709 2°55.733 2.2 0.9 6 -999
2007-04-16 08:30:53 51°13.711 2°55.733 358.4 1 1 -999
2007-04-16 08:30:58 51°13.712 2°55.732 354.1 1.1 356 -999
2007-04-16 08:31:03 51°13.714 2°55.732 349.7 1.2 353 -999
2007-04-16 08:31:08 51°13.716 2°55.731 345.2 1.3 345 -999
2007-04-16 08:31:13 51°13.718 2°55.73 341.2 1.5 342 -999
2007-04-16 08:31:18 51°13.72 2°55.729 338.2 1.6 336 -999
2007-04-16 08:31:23 51°13.722 2°55.727 335.7 1.8 332 -999
2007-04-16 08:31:28 51°13.724 2°55.726 334.1 1.9 328 -999
2007-04-16 08:31:33 51°13.726 2°55.723 333 2 327 -999
2007-04-16 08:31:38 51°13.729 2°55.721 332.7 2.1 326 -999
2007-04-16 08:31:43 51°13.732 2°55.718 333.4 2.3 325 -999
2007-04-16 08:31:48 51°13.734 2°55.715 334.5 2.4 325 -999
2007-04-16 08:31:53 51°13.737 2°55.711 335.4 2.7 327 -999
2007-04-16 08:31:58 51°13.741 2°55.707 335.9 3.3 328 -999
2007-04-16 08:32:03 51°13.746 2°55.703 335.9 4 329 -999
2007-04-16 08:32:08 51°13.751 2°55.698 335.7 4.4 329 -999
2007-04-16 08:32:13 51°13.756 2°55.693 335.6 4.5 330 -999
2007-04-16 08:32:18 51°13.761 2°55.688 335.6 4.5 330 -999
2007-04-16 08:32:23 51°13.767 2°55.683 335.6 4.6 331 -999
2007-04-16 08:32:28 51°13.773 2°55.678 335.6 4.6 331 -999
2007-04-16 08:32:33 51°13.778 2°55.673 335.8 4.7 331 -999
2007-04-16 08:32:38 51°13.784 2°55.668 336 4.7 331 -999
2007-04-16 08:32:43 51°13.79 2°55.663 336.1 4.7 331 -999
2007-04-16 08:32:48 51°13.796 2°55.658 336.5 4.8 331 -999
2007-04-16 08:32:53 51°13.801 2°55.653 336.7 4.8 332 -999
2007-04-16 08:32:58 51°13.807 2°55.648 336.9 4.8 332 -999
2007-04-16 08:33:03 51°13.813 2°55.643 336.9 4.8 332 -999
2007-04-16 08:33:08 51°13.819 2°55.638 336.9 4.8 331 -999
2007-04-16 08:33:13 51°13.825 2°55.633 336.7 4.9 332 -999
2007-04-16 08:33:18 51°13.831 2°55.628 336.6 4.9 332 -999
2007-04-16 08:33:23 51°13.837 2°55.622 336.3 4.9 332 -999
2007-04-16 08:33:28 51°13.842 2°55.617 336.3 4.9 332 -999
2007-04-16 08:33:33 51°13.848 2°55.612 336.6 4.9 331 -999
2007-04-16 08:33:38 51°13.854 2°55.607 336.9 4.9 332 -999
2007-04-16 08:33:43 51°13.861 2°55.602 337.2 4.9 332 -999
2007-04-16 08:33:48 51°13.867 2°55.597 337.4 4.9 332 -999
2007-04-16 08:33:53 51°13.872 2°55.591 337.5 4.9 332 -999
2007-04-16 08:33:58 51°13.878 2°55.586 337.5 4.9 333 -999
2007-04-16 08:34:03 51°13.884 2°55.581 337.4 4.9 333 -999
2007-04-16 08:34:08 51°13.89 2°55.576 336.9 4.9 332 -999
2007-04-16 08:34:13 51°13.896 2°55.571 336.7 4.8 333 -999
2007-04-16 08:34:18 51°13.902 2°55.566 336.5 4.8 332 -999
2007-04-16 08:34:23 51°13.907 2°55.561 336.4 4.6 332 -999
2007-04-16 08:34:28 51°13.913 2°55.556 336.3 4.5 332 -999
2007-04-16 08:34:33 51°13.918 2°55.552 336.3 4.4 333 -999
2007-04-16 08:34:38 51°13.924 2°55.548 336.2 4.3 332 -999
2007-04-16 08:34:43 51°13.93 2°55.545 335.4 4.2 333 -999
2007-04-16 08:34:48 51°13.935 2°55.541 334.4 4.1 332 -999
2007-04-16 08:34:53 51°13.94 2°55.536 333.1 4.1 332 -999
2007-04-16 08:34:58 51°13.944 2°55.532 331.4 3.9 329 -999
2007-04-16 08:35:03 51°13.948 2°55.527 329.8 3.8 328 -999
2007-04-16 08:35:08 51°13.953 2°55.522 328.3 3.7 325 -999
2007-04-16 08:35:13 51°13.957 2°55.517 326.7 3.7 324 -999
2007-04-16 08:35:18 51°13.961 2°55.513 325.5 3.6 321 -999
2007-04-16 08:35:23 51°13.965 2°55.508 325 3.5 321 -999
2007-04-16 08:35:28 51°13.969 2°55.503 324.8 3.5 321 -999
2007-04-16 08:35:33 51°13.972 2°55.498 324.5 3.5 322 -999
2007-04-16 08:35:38 51°13.976 2°55.492 324.4 3.5 320 -999
2007-04-16 08:35:43 51°13.979 2°55.487 324.1 3.4 320 -999
2007-04-16 08:35:48 51°13.982 2°55.482 323.9 3.2 320 -999
2007-04-16 08:35:53 51°13.986 2°55.478 324.1 3 319 -999
2007-04-16 08:35:58 51°13.989 2°55.474 325.3 2.8 321 -999
2007-04-16 08:36:03 51°13.992 2°55.47 326.8 2.6 321 -999
2007-04-16 08:36:08 51°13.994 2°55.467 328.2 2.5 323 -999
2007-04-16 08:36:13 51°13.996 2°55.463 329.6 2.2 323 -999
2007-04-16 08:36:18 51°13.999 2°55.461 331.5 2 325 -999
2007-04-16 08:36:23 51°14 2°55.459 333.4 1.5 324 -999
2007-04-16 08:36:28 51°14.002 2°55.457 335.1 1.1 328 -999
2007-04-16 08:36:33 51°14.002 2°55.456 336.6 0.8 319 -999
2007-04-16 08:36:38 51°14.003 2°55.455 337.6 0.7 328 -999
2007-04-16 08:36:43 51°14.003 2°55.454 338.8 0.4 312 -999
2007-04-16 08:36:48 51°14.003 2°55.453 339.5 0.2 328 -999
2007-04-16 08:36:53 51°14.003 2°55.452 339.8 0.1 293 -999
2007-04-16 08:36:58 51°14.003 2°55.452 340 0.1 338 -999
2007-04-16 08:37:03 51°14.003 2°55.452 340.1 0.1 285 -999
2007-04-16 08:37:08 51°14.003 2°55.452 340.3 -999 220 -999
2007-04-16 08:37:13 51°14.003 2°55.452 340.8 -999 82 -999
2007-04-16 08:37:18 51°14.003 2°55.453 341.5 0.1 53 -999
2007-04-16 08:37:23 51°14.004 2°55.454 342.2 0.1 59 -999
2007-04-16 08:37:28 51°14.005 2°55.455 342.7 -999 109 -999
2007-04-16 08:37:33 51°14.005 2°55.456 343 0.1 121 -999
2007-04-16 08:37:38 51°14.005 2°55.456 343.3 0.1 144 -999
2007-04-16 08:37:43 51°14.005 2°55.455 343.8 -999 79 -999
2007-04-16 08:37:48 51°14.005 2°55.455 344.1 0.2 309 -999
2007-04-16 08:37:53 51°14.005 2°55.455 344.2 0.2 298 -999
2007-04-16 08:37:58 51°14.005 2°55.454 343.6 0.3 278 -999
2007-04-16 08:38:03 51°14.005 2°55.454 343.1 0.2 282 -999
2007-04-16 08:38:08 51°14.005 2°55.453 342.9 0.1 307 -999
2007-04-16 08:38:13 51°14.005 2°55.453 343.3 -999 305 -999
2007-04-16 08:38:18 51°14.005 2°55.453 343.8 -999 169 -999
2007-04-16 08:38:23 51°14.005 2°55.453 344.6 -999 133 -999
2007-04-16 08:38:28 51°14.004 2°55.453 345.4 0.1 132 -999
2007-04-16 08:38:33 51°14.004 2°55.453 346.3 0.1 139 -999
2007-04-16 08:38:38 51°14.004 2°55.453 347.4 0.1 177 -999
2007-04-16 08:38:43 51°14.004 2°55.453 348.4 -999 175 -999
2007-04-16 08:38:48 51°14.004 2°55.453 349.2 0.1 240 -999
2007-04-16 08:38:53 51°14.004 2°55.452 350 0.1 251 -999
2007-04-16 08:38:58 51°14.004 2°55.452 350.7 0.1 265 -999
2007-04-16 08:39:03 51°14.004 2°55.452 351 -999 278 -999
2007-04-16 08:39:08 51°14.004 2°55.452 350.5 -999 279 -999
2007-04-16 08:39:13 51°14.004 2°55.451 350.3 0.1 280 -999
2007-04-16 08:39:18 51°14.003 2°55.451 350.3 0.1 88 -999
2007-04-16 08:39:23 51°14.003 2°55.451 350.4 -999 127 -999
2007-04-16 08:39:28 51°14.003 2°55.451 350.6 0.1 87 -999
2007-04-16 08:39:33 51°14.003 2°55.451 350.9 -999 101 -999
2007-04-16 08:39:38 51°14.003 2°55.451 351.2 -999 149 -999
2007-04-16 08:39:43 51°14.004 2°55.452 351.2 -999 123 -999
2007-04-16 08:39:48 51°14.004 2°55.452 351.3 -999 16 -999
2007-04-16 08:39:53 51°14.005 2°55.453 351.3 0.1 351 -999
2007-04-16 08:39:58 51°14.005 2°55.454 351.2 0.1 321 -999
2007-04-16 08:40:03 51°14.005 2°55.453 350.5 0.1 304 -999
2007-04-16 08:40:08 51°14.005 2°55.452 349.9 0.1 275 -999
2007-04-16 08:40:13 51°14.004 2°55.452 349.6 0.1 263 -999
2007-04-16 08:40:18 51°14.004 2°55.451 349.6 -999 274 -999
2007-04-16 08:40:23 51°14.004 2°55.451 349.5 -999 326 -999
2007-04-16 08:40:28 51°14.003 2°55.45 349.4 -999 36 -999
2007-04-16 08:40:33 51°14.003 2°55.45 349.4 -999 306 -999
2007-04-16 08:40:38 51°14.003 2°55.45 349.4 -999 90 -999
2007-04-16 08:40:43 51°14.003 2°55.45 349.5 -999 117 -999
2007-04-16 08:40:48 51°14.003 2°55.45 349.5 0.1 234 -999
2007-04-16 08:40:53 51°14.003 2°55.45 349.5 -999 179 -999
2007-04-16 08:40:58 51°14.004 2°55.451 349.5 -999 40 -999
2007-04-16 08:41:03 51°14.005 2°55.452 349.5 -999 44 -999
2007-04-16 08:41:08 51°14.005 2°55.452 349.5 -999 60 -999
2007-04-16 08:41:13 51°14.005 2°55.452 349.5 -999 256 -999
2007-04-16 08:41:18 51°14.005 2°55.452 349.5 -999 291 -999
2007-04-16 08:41:23 51°14.005 2°55.452 349.5 -999 197 -999
2007-04-16 08:41:28 51°14.004 2°55.452 349.5 -999 48 -999
2007-04-16 08:41:33 51°14.004 2°55.452 349.5 -999 116 -999
2007-04-16 08:41:38 51°14.004 2°55.452 349.5 -999 189 -999
2007-04-16 08:41:43 51°14.004 2°55.452 349.5 -999 198 -999
2007-04-16 08:41:48 51°14.004 2°55.452 349.5 -999 35 -999
2007-04-16 08:41:53 51°14.005 2°55.452 349.5 -999 42 -999
2007-04-16 08:41:58 51°14.005 2°55.452 349.5 -999 98 -999
2007-04-16 08:42:03 51°14.005 2°55.453 349.5 -999 232 -999
2007-04-16 08:42:08 51°14.005 2°55.453 349.5 -999 188 -999
2007-04-16 08:42:13 51°14.004 2°55.452 349.5 -999 236 -999
2007-04-16 08:42:18 51°14.004 2°55.452 349.5 -999 20 -999
2007-04-16 08:42:23 51°14.004 2°55.452 349.5 -999 355 -999
2007-04-16 08:42:28 51°14.004 2°55.452 349.5 -999 218 -999
2007-04-16 08:42:33 51°14.004 2°55.452 349.5 -999 3 -999
2007-04-16 08:42:38 51°14.004 2°55.452 349.5 -999 57 -999
2007-04-16 08:42:43 51°14.004 2°55.452 349.5 -999 70 -999
2007-04-16 08:42:48 51°14.004 2°55.452 349.5 -999 167 -999
2007-04-16 08:42:53 51°14.004 2°55.452 349.5 -999 39 -999
2007-04-16 08:42:58 51°14.003 2°55.451 349.5 -999 200 -999
2007-04-16 08:43:03 51°14.003 2°55.45 349.5 -999 190 -999
2007-04-16 08:43:08 51°14.003 2°55.451 349.5 -999 14 -999
2007-04-16 08:43:13 51°14.004 2°55.451 349.5 -999 207 -999
2007-04-16 08:43:18 51°14.004 2°55.452 349.5 -999 26 -999
2007-04-16 08:43:23 51°14.004 2°55.451 349.5 -999 74 -999
2007-04-16 08:43:28 51°14.003 2°55.45 349.5 -999 301 -999
2007-04-16 08:43:33 51°14.002 2°55.449 349.5 -999 28 -999
2007-04-16 08:43:38 51°14.002 2°55.449 349.5 -999 207 -999
2007-04-16 08:43:43 51°14.002 2°55.449 349.5 -999 202 -999
2007-04-16 08:43:48 51°14.002 2°55.448 349.5 -999 175 -999
2007-04-16 08:43:53 51°14.002 2°55.449 349.5 -999 354 -999
2007-04-16 08:43:58 51°14.003 2°55.45 349.5 -999 28 -999
2007-04-16 08:44:03 51°14.004 2°55.451 349.5 -999 55 -999
2007-04-16 08:44:08 51°14.004 2°55.451 349.5 -999 177 -999
2007-04-16 08:44:13 51°14.004 2°55.451 349.5 -999 81 -999
2007-04-16 08:44:18 51°14.004 2°55.451 349.7 0.1 98 -999
2007-04-16 08:44:23 51°14.004 2°55.451 350 0.1 129 -999
2007-04-16 08:44:28 51°14.004 2°55.451 350.1 -999 230 -999
2007-04-16 08:44:33 51°14.004 2°55.451 350.1 -999 107 -999
2007-04-16 08:44:38 51°14.004 2°55.451 350.1 -999 8 -999
2007-04-16 08:44:43 51°14.004 2°55.451 350.1 -999 308 -999
2007-04-16 08:44:48 51°14.004 2°55.45 350.1 -999 22 -999
2007-04-16 08:44:53 51°14.003 2°55.45 350.1 -999 20 -999
2007-04-16 08:44:58 51°14.003 2°55.449 350.1 -999 48 -999
2007-04-16 08:45:03 51°14.003 2°55.449 350.1 -999 1 -999
2007-04-16 08:45:08 51°14.003 2°55.449 350.1 -999 229 -999
2007-04-16 08:45:13 51°14.003 2°55.449 350.1 -999 252 -999
2007-04-16 08:45:18 51°14.003 2°55.449 350.1 -999 202 -999
2007-04-16 08:45:23 51°14.002 2°55.448 350.1 -999 213 -999
2007-04-16 08:45:28 51°14.002 2°55.448 350.1 -999 39 -999
2007-04-16 08:45:33 51°14.002 2°55.448 350.1 -999 100 -999
2007-04-16 08:45:38 51°14.002 2°55.448 350.1 -999 210 -999
2007-04-16 08:45:43 51°14.003 2°55.449 350.1 -999 220 -999
2007-04-16 08:45:48 51°14.003 2°55.449 350.1 -999 131 -999
2007-04-16 08:45:53 51°14.002 2°55.449 350 -999 246 -999
2007-04-16 08:45:58 51°14.003 2°55.449 349.9 -999 49 -999
2007-04-16 08:46:03 51°14.003 2°55.449 349.9 -999 49 -999
2007-04-16 08:46:08 51°14.003 2°55.449 350.1 -999 177 -999
2007-04-16 08:46:13 51°14.003 2°55.45 350.2 -999 256 -999
2007-04-16 08:46:18 51°14.003 2°55.45 350.2 0.1 230 -999
2007-04-16 08:46:23 51°14.003 2°55.45 350.2 -999 47 -999
2007-04-16 08:46:28 51°14.004 2°55.451 350.2 -999 30 -999
2007-04-16 08:46:33 51°14.004 2°55.452 350 -999 254 -999
2007-04-16 08:46:38 51°14.004 2°55.452 349.8 -999 186 -999
2007-04-16 08:46:43 51°14.005 2°55.453 349.7 0.1 211 -999
2007-04-16 08:46:48 51°14.005 2°55.452 349.8 0.1 344 -999
2007-04-16 08:46:53 51°14.004 2°55.452 349.9 0.1 17 -999
2007-04-16 08:46:58 51°14.004 2°55.451 350 -999 31 -999
2007-04-16 08:47:03 51°14.003 2°55.451 350 0.1 201 -999
2007-04-16 08:47:08 51°14.003 2°55.45 349.8 0.1 201 -999
2007-04-16 08:47:13 51°14.003 2°55.45 349.7 -999 184 -999
2007-04-16 08:47:18 51°14.003 2°55.451 349.8 -999 6 -999
2007-04-16 08:47:23 51°14.004 2°55.452 349.8 -999 2 -999
2007-04-16 08:47:28 51°14.004 2°55.452 349.9 -999 151 -999
2007-04-16 08:47:33 51°14.004 2°55.452 350.1 -999 129 -999
2007-04-16 08:47:38 51°14.004 2°55.452 350.1 -999 256 -999
2007-04-16 08:47:43 51°14.004 2°55.452 350.1 -999 287 -999
2007-04-16 08:47:48 51°14.004 2°55.452 350.1 -999 96 -999
2007-04-16 08:47:53 51°14.004 2°55.452 350.1 -999 305 -999
2007-04-16 08:47:58 51°14.004 2°55.452 350.1 -999 175 -999
2007-04-16 08:48:03 51°14.004 2°55.452 350 -999 221 -999
2007-04-16 08:48:08 51°14.004 2°55.451 349.9 -999 150 -999
2007-04-16 08:48:13 51°14.004 2°55.451 349.8 -999 208 -999
2007-04-16 08:48:18 51°14.004 2°55.451 349.8 -999 202 -999
2007-04-16 08:48:23 51°14.003 2°55.451 349.8 -999 103 -999
2007-04-16 08:48:28 51°14.003 2°55.45 349.8 -999 46 -999
2007-04-16 08:48:33 51°14.003 2°55.45 349.8 -999 23 -999
2007-04-16 08:48:38 51°14.003 2°55.451 349.8 -999 320 -999
2007-04-16 08:48:43 51°14.003 2°55.451 349.8 -999 43 -999
2007-04-16 08:48:48 51°14.003 2°55.451 349.8 -999 325 -999
2007-04-16 08:48:53 51°14.003 2°55.451 349.8 0.1 40 -999
2007-04-16 08:48:58 51°14.003 2°55.451 349.8 -999 339 -999
2007-04-16 08:49:03 51°14.003 2°55.451 349.8 0.1 198 -999
2007-04-16 08:49:08 51°14.003 2°55.45 349.8 -999 195 -999
2007-04-16 08:49:13 51°14.003 2°55.45 349.8 -999 120 -999
2007-04-16 08:49:18 51°14.003 2°55.45 349.8 -999 53 -999
2007-04-16 08:49:23 51°14.003 2°55.45 349.8 -999 193 -999
2007-04-16 08:49:28 51°14.003 2°55.45 349.8 -999 4 -999
2007-04-16 08:49:33 51°14.003 2°55.45 349.8 -999 236 -999
2007-04-16 08:49:38 51°14.003 2°55.45 349.8 -999 49 -999
2007-04-16 08:49:43 51°14.003 2°55.45 349.8 -999 70 -999
2007-04-16 08:49:48 51°14.003 2°55.45 349.8 -999 227 -999
2007-04-16 08:49:53 51°14.003 2°55.45 349.8 -999 98 -999
2007-04-16 08:49:58 51°14.003 2°55.45 349.8 -999 303 -999
2007-04-16 08:50:03 51°14.003 2°55.45 349.8 -999 167 -999
2007-04-16 08:50:08 51°14.003 2°55.45 349.8 -999 79 -999
2007-04-16 08:50:13 51°14.003 2°55.451 349.6 -999 109 -999
2007-04-16 08:50:18 51°14.003 2°55.451 349.6 -999 329 -999
2007-04-16 08:50:23 51°14.003 2°55.451 349.6 -999 303 -999
2007-04-16 08:50:28 51°14.003 2°55.451 349.7 -999 302 -999
2007-04-16 08:50:33 51°14.003 2°55.451 349.7 -999 138 -999
2007-04-16 08:50:38 51°14.003 2°55.451 349.7 -999 4 -999
2007-04-16 08:50:43 51°14.003 2°55.451 349.7 -999 344 -999
2007-04-16 08:50:48 51°14.003 2°55.451 349.7 -999 242 -999
2007-04-16 08:50:53 51°14.003 2°55.451 349.7 -999 211 -999
2007-04-16 08:50:58 51°14.003 2°55.451 349.7 -999 185 -999
2007-04-16 08:51:03 51°14.003 2°55.451 349.7 -999 172 -999
2007-04-16 08:51:08 51°14.003 2°55.451 349.7 -999 229 -999
2007-04-16 08:51:13 51°14.003 2°55.451 349.7 -999 8 -999
2007-04-16 08:51:18 51°14.002 2°55.451 349.7 -999 154 -999
2007-04-16 08:51:23 51°14.003 2°55.451 349.7 -999 20 -999
2007-04-16 08:51:28 51°14.003 2°55.45 349.7 -999 215 -999
2007-04-16 08:51:33 51°14.003 2°55.451 349.7 -999 166 -999
2007-04-16 08:51:38 51°14.003 2°55.451 349.7 -999 45 -999
2007-04-16 08:51:43 51°14.003 2°55.451 349.7 -999 209 -999
2007-04-16 08:51:48 51°14.003 2°55.451 349.7 -999 357 -999
2007-04-16 08:51:53 51°14.003 2°55.451 349.8 -999 10 -999
2007-04-16 08:51:58 51°14.003 2°55.451 349.8 -999 51 -999
2007-04-16 08:52:03 51°14.003 2°55.451 349.8 -999 50 -999
2007-04-16 08:52:08 51°14.003 2°55.451 349.8 -999 22 -999
2007-04-16 08:52:13 51°14.003 2°55.451 349.8 -999 191 -999
2007-04-16 08:52:18 51°14.003 2°55.451 349.8 -999 262 -999
2007-04-16 08:52:23 51°14.003 2°55.451 349.8 -999 152 -999
2007-04-16 08:52:28 51°14.003 2°55.451 349.8 -999 312 -999
2007-04-16 08:52:33 51°14.003 2°55.451 349.8 -999 126 -999
2007-04-16 08:52:38 51°14.003 2°55.451 349.8 -999 319 -999
2007-04-16 08:52:43 51°14.003 2°55.451 349.8 -999 73 -999
2007-04-16 08:52:48 51°14.003 2°55.451 349.9 0.1 40 -999
2007-04-16 08:52:53 51°14.003 2°55.451 349.9 -999 67 -999
2007-04-16 08:52:58 51°14.003 2°55.451 349.9 -999 214 -999
2007-04-16 08:53:03 51°14.003 2°55.451 349.9 -999 96 -999
2007-04-16 08:53:08 51°14.003 2°55.451 349.9 -999 272 -999
2007-04-16 08:53:13 51°14.003 2°55.451 349.9 -999 176 -999
2007-04-16 08:53:18 51°14.003 2°55.451 349.9 -999 225 -999
2007-04-16 08:53:23 51°14.003 2°55.451 349.9 -999 152 -999
2007-04-16 08:53:28 51°14.003 2°55.451 349.9 -999 324 -999
2007-04-16 08:53:33 51°14.003 2°55.451 349.9 -999 100 -999
2007-04-16 08:53:38 51°14.003 2°55.451 349.9 0.1 34 -999
2007-04-16 08:53:43 51°14.003 2°55.451 349.9 0.1 38 -999
2007-04-16 08:53:48 51°14.003 2°55.451 349.9 -999 113 -999
2007-04-16 08:53:53 51°14.003 2°55.451 349.9 -999 136 -999
2007-04-16 08:53:58 51°14.003 2°55.451 349.9 -999 245 -999
2007-04-16 08:54:03 51°14.003 2°55.451 349.9 -999 113 -999
2007-04-16 08:54:08 51°14.004 2°55.451 349.8 -999 82 -999
2007-04-16 08:54:13 51°14.003 2°55.451 349.8 0.1 199 -999
2007-04-16 08:54:18 51°14.004 2°55.451 349.7 -999 237 -999
2007-04-16 08:54:23 51°14.004 2°55.451 349.6 -999 120 -999
2007-04-16 08:54:28 51°14.004 2°55.451 349.6 -999 250 -999
2007-04-16 08:54:33 51°14.004 2°55.451 349.7 -999 39 -999
2007-04-16 08:54:38 51°14.004 2°55.451 349.7 -999 243 -999
2007-04-16 08:54:43 51°14.003 2°55.451 349.7 -999 246 -999
2007-04-16 08:54:48 51°14.003 2°55.451 349.7 -999 91 -999
2007-04-16 08:54:53 51°14.003 2°55.451 349.7 -999 191 -999
2007-04-16 08:54:58 51°14.003 2°55.451 349.7 -999 173 -999
2007-04-16 08:55:03 51°14.003 2°55.451 349.6 -999 130 -999
2007-04-16 08:55:08 51°14.003 2°55.451 349.6 -999 12 -999
2007-04-16 08:55:13 51°14.004 2°55.451 349.6 0.1 37 -999
2007-04-16 08:55:18 51°14.004 2°55.451 349.6 -999 33 -999
2007-04-16 08:55:23 51°14.004 2°55.451 349.6 -999 359 -999
2007-04-16 08:55:28 51°14.004 2°55.451 349.6 -999 237 -999
2007-04-16 08:55:33 51°14.004 2°55.451 349.6 -999 225 -999
2007-04-16 08:55:38 51°14.004 2°55.451 349.6 -999 279 -999
2007-04-16 08:55:43 51°14.004 2°55.451 349.6 -999 218 -999
2007-04-16 08:55:48 51°14.004 2°55.451 349.6 -999 241 -999
2007-04-16 08:55:53 51°14.004 2°55.451 349.6 -999 116 -999
2007-04-16 08:55:58 51°14.004 2°55.451 349.6 -999 255 -999
2007-04-16 08:56:03 51°14.004 2°55.451 349.6 -999 40 -999
2007-04-16 08:56:08 51°14.004 2°55.451 349.6 -999 12 -999
2007-04-16 08:56:13 51°14.004 2°55.451 349.6 -999 33 -999
2007-04-16 08:56:18 51°14.004 2°55.451 349.6 -999 118 -999
2007-04-16 08:56:23 51°14.004 2°55.451 349.6 -999 338 -999
2007-04-16 08:56:28 51°14.004 2°55.451 349.6 -999 43 -999
2007-04-16 08:56:33 51°14.004 2°55.451 349.6 -999 306 -999
2007-04-16 08:56:38 51°14.004 2°55.451 349.7 -999 279 -999
2007-04-16 08:56:43 51°14.004 2°55.451 349.8 -999 234 -999
2007-04-16 08:56:48 51°14.004 2°55.451 349.8 -999 201 -999
2007-04-16 08:56:53 51°14.004 2°55.451 349.8 -999 208 -999
2007-04-16 08:56:58 51°14.004 2°55.451 349.8 -999 32 -999
2007-04-16 08:57:03 51°14.004 2°55.451 349.8 0.1 35 -999
2007-04-16 08:57:08 51°14.004 2°55.451 349.8 -999 44 -999
2007-04-16 08:57:13 51°14.004 2°55.451 349.8 -999 116 -999
2007-04-16 08:57:18 51°14.004 2°55.451 349.8 -999 196 -999
2007-04-16 08:57:23 51°14.004 2°55.451 349.8 -999 245 -999
2007-04-16 08:57:28 51°14.004 2°55.451 349.8 -999 262 -999
2007-04-16 08:57:33 51°14.004 2°55.451 349.7 -999 227 -999
2007-04-16 08:57:38 51°14.004 2°55.452 349.7 -999 236 -999
2007-04-16 08:57:43 51°14.004 2°55.452 349.7 -999 98 -999
2007-04-16 08:57:48 51°14.004 2°55.452 349.7 -999 231 -999
2007-04-16 08:57:53 51°14.004 2°55.452 349.6 -999 102 -999
2007-04-16 08:57:58 51°14.004 2°55.452 349.5 -999 205 -999
2007-04-16 08:58:03 51°14.004 2°55.451 349.5 -999 212 -999
2007-04-16 08:58:08 51°14.004 2°55.451 349.5 -999 40 -999
2007-04-16 08:58:13 51°14.004 2°55.451 349.5 -999 21 -999
2007-04-16 08:58:18 51°14.004 2°55.451 349.5 -999 75 -999
2007-04-16 08:58:23 51°14.004 2°55.451 349.5 -999 37 -999
2007-04-16 08:58:28 51°14.004 2°55.452 349.5 -999 14 -999
2007-04-16 08:58:33 51°14.004 2°55.452 349.5 -999 343 -999
2007-04-16 08:58:38 51°14.004 2°55.452 349.5 -999 220 -999
2007-04-16 08:58:43 51°14.004 2°55.452 349.5 -999 26 -999
2007-04-16 08:58:48 51°14.004 2°55.452 349.5 -999 239 -999
2007-04-16 08:58:53 51°14.004 2°55.452 349.5 -999 233 -999
2007-04-16 08:58:58 51°14.004 2°55.452 349.5 -999 61 -999
2007-04-16 08:59:03 51°14.004 2°55.452 349.5 -999 9 -999
2007-04-16 08:59:08 51°14.004 2°55.451 349.5 -999 191 -999
2007-04-16 08:59:13 51°14.004 2°55.451 349.5 -999 61 -999
2007-04-16 08:59:18 51°14.004 2°55.451 349.5 -999 14 -999
2007-04-16 08:59:23 51°14.004 2°55.451 349.5 -999 33 -999
2007-04-16 08:59:28 51°14.004 2°55.451 349.5 -999 36 -999
2007-04-16 08:59:33 51°14.004 2°55.451 349.5 -999 71 -999
2007-04-16 08:59:38 51°14.004 2°55.451 349.5 -999 4 -999
2007-04-16 08:59:43 51°14.004 2°55.451 349.5 -999 37 -999
2007-04-16 08:59:48 51°14.004 2°55.451 349.5 -999 103 -999
2007-04-16 08:59:53 51°14.004 2°55.451 349.5 -999 74 -999
2007-04-16 08:59:58 51°14.004 2°55.451 349.5 -999 66 -999
2007-04-16 09:00:03 51°14.004 2°55.45 349.5 -999 3 -999
2007-04-16 09:00:08 51°14.004 2°55.45 349.5 -999 25 -999
2007-04-16 09:00:13 51°14.004 2°55.45 349.5 -999 104 -999
2007-04-16 09:00:18 51°14.004 2°55.45 349.5 -999 297 -999
2007-04-16 09:00:23 51°14.004 2°55.45 349.5 -999 187 -999
2007-04-16 09:00:28 51°14.004 2°55.45 349.4 -999 262 -999
2007-04-16 09:00:33 51°14.004 2°55.45 349.4 -999 154 -999
2007-04-16 09:00:38 51°14.004 2°55.45 349.4 -999 112 -999
2007-04-16 09:00:43 51°14.004 2°55.45 349.4 -999 346 -999
2007-04-16 09:00:48 51°14.004 2°55.45 349.4 -999 226 -999
2007-04-16 09:00:53 51°14.004 2°55.451 349.4 -999 336 -999
2007-04-16 09:00:58 51°14.004 2°55.451 349.4 -999 26 -999
2007-04-16 09:01:03 51°14.004 2°55.451 349.4 -999 236 -999
2007-04-16 09:01:08 51°14.004 2°55.451 349.4 -999 154 -999
2007-04-16 09:01:13 51°14.004 2°55.451 349.4 -999 234 -999
2007-04-16 09:01:18 51°14.004 2°55.451 349.4 -999 34 -999
2007-04-16 09:01:23 51°14.004 2°55.451 349.4 -999 334 -999
2007-04-16 09:01:28 51°14.004 2°55.451 349.4 -999 129 -999
2007-04-16 09:01:33 51°14.004 2°55.451 349.4 -999 124 -999
2007-04-16 09:01:38 51°14.004 2°55.451 349.4 -999 293 -999
2007-04-16 09:01:43 51°14.004 2°55.451 349.4 -999 159 -999
2007-04-16 09:01:48 51°14.004 2°55.451 349.4 -999 329 -999
2007-04-16 09:01:53 51°14.004 2°55.451 349.4 -999 117 -999
2007-04-16 09:01:58 51°14.003 2°55.45 349.4 -999 145 -999
2007-04-16 09:02:03 51°14.003 2°55.45 349.4 -999 114 -999
2007-04-16 09:02:08 51°14.003 2°55.45 349.3 -999 295 -999
2007-04-16 09:02:13 51°14.003 2°55.45 349.3 -999 267 -999
2007-04-16 09:02:18 51°14.003 2°55.45 349.3 -999 291 -999
2007-04-16 09:02:23 51°14.003 2°55.45 349.3 -999 36 -999
2007-04-16 09:02:28 51°14.003 2°55.45 349.3 -999 37 -999
2007-04-16 09:02:33 51°14.003 2°55.45 349.3 -999 259 -999
2007-04-16 09:02:38 51°14.003 2°55.451 349.3 -999 126 -999
2007-04-16 09:02:43 51°14.003 2°55.45 349.3 -999 269 -999
2007-04-16 09:02:48 51°14.003 2°55.451 349.3 -999 119 -999
2007-04-16 09:02:53 51°14.003 2°55.451 349.3 -999 229 -999
2007-04-16 09:02:58 51°14.003 2°55.451 349.2 -999 158 -999
2007-04-16 09:03:03 51°14.003 2°55.451 349.2 -999 95 -999
2007-04-16 09:03:08 51°14.003 2°55.451 349.2 -999 66 -999
2007-04-16 09:03:13 51°14.003 2°55.451 349.2 -999 317 -999
2007-04-16 09:03:18 51°14.003 2°55.451 349.2 -999 79 -999
2007-04-16 09:03:23 51°14.003 2°55.451 349.3 -999 342 -999
2007-04-16 09:03:28 51°14.003 2°55.451 349.3 -999 344 -999
2007-04-16 09:03:33 51°14.003 2°55.451 349.4 -999 330 -999
2007-04-16 09:03:38 51°14.003 2°55.451 349.4 -999 226 -999
2007-04-16 09:03:43 51°14.003 2°55.451 349.5 -999 191 -999
2007-04-16 09:03:48 51°14.003 2°55.451 349.5 -999 185 -999
2007-04-16 09:03:53 51°14.003 2°55.451 349.5 -999 62 -999
2007-04-16 09:03:58 51°14.003 2°55.451 349.5 -999 193 -999
2007-04-16 09:04:03 51°14.003 2°55.45 349.4 -999 240 -999
2007-04-16 09:04:08 51°14.003 2°55.45 349.3 -999 35 -999
2007-04-16 09:04:13 51°14.003 2°55.45 349.3 -999 69 -999
2007-04-16 09:04:18 51°14.003 2°55.45 349.4 -999 357 -999
2007-04-16 09:04:23 51°14.003 2°55.45 349.5 0.1 74 -999
2007-04-16 09:04:28 51°14.003 2°55.45 349.5 -999 247 -999
2007-04-16 09:04:33 51°14.003 2°55.449 349.5 -999 48 -999
2007-04-16 09:04:38 51°14.003 2°55.449 349.5 -999 103 -999
2007-04-16 09:04:43 51°14.003 2°55.449 349.5 -999 271 -999
2007-04-16 09:04:48 51°14.003 2°55.449 349.4 -999 120 -999
2007-04-16 09:04:53 51°14.003 2°55.449 349.3 -999 276 -999
2007-04-16 09:04:58 51°14.003 2°55.449 349.3 -999 264 -999
2007-04-16 09:05:03 51°14.003 2°55.449 349.3 -999 88 -999
2007-04-16 09:05:08 51°14.003 2°55.449 349.3 -999 234 -999
2007-04-16 09:05:13 51°14.003 2°55.449 349.3 -999 221 -999
2007-04-16 09:05:18 51°14.004 2°55.45 349.3 -999 322 -999
2007-04-16 09:05:23 51°14.004 2°55.45 349.3 -999 252 -999
2007-04-16 09:05:28 51°14.004 2°55.45 349.3 -999 280 -999
2007-04-16 09:05:33 51°14.004 2°55.45 349.3 -999 305 -999
2007-04-16 09:05:38 51°14.004 2°55.451 349.3 -999 257 -999
2007-04-16 09:05:43 51°14.004 2°55.451 349.3 -999 78 -999
2007-04-16 09:05:48 51°14.004 2°55.451 349.3 -999 187 -999
2007-04-16 09:05:53 51°14.004 2°55.451 349.3 -999 89 -999
2007-04-16 09:05:58 51°14.004 2°55.451 349.2 -999 290 -999
2007-04-16 09:06:03 51°14.004 2°55.451 349.2 -999 106 -999
2007-04-16 09:06:08 51°14.004 2°55.451 349.2 -999 127 -999
2007-04-16 09:06:13 51°14.003 2°55.45 349.2 -999 132 -999
2007-04-16 09:06:18 51°14.003 2°55.45 349.2 -999 179 -999
2007-04-16 09:06:23 51°14.003 2°55.45 349.2 -999 162 -999
2007-04-16 09:06:28 51°14.003 2°55.45 349.2 -999 287 -999
2007-04-16 09:06:33 51°14.003 2°55.45 349.1 -999 257 -999
2007-04-16 09:06:38 51°14.003 2°55.45 349.1 -999 334 -999
2007-04-16 09:06:43 51°14.003 2°55.451 349.1 0.1 51 -999
2007-04-16 09:06:48 51°14.002 2°55.449 349.1 -999 94 -999
2007-04-16 09:06:53 51°14.001 2°55.447 349.1 -999 276 -999
2007-04-16 09:06:58 51°14 2°55.446 349.1 -999 118 -999
2007-04-16 09:07:03 51°14 2°55.446 349.1 -999 223 -999
2007-04-16 09:07:08 51°14 2°55.445 349.1 -999 193 -999
2007-04-16 09:07:13 51°14 2°55.445 349.1 -999 47 -999
2007-04-16 09:07:18 51°14 2°55.446 349.1 -999 219 -999
2007-04-16 09:07:23 51°14 2°55.446 349.1 -999 351 -999
2007-04-16 09:07:28 51°14.001 2°55.447 349.1 -999 212 -999
2007-04-16 09:07:33 51°14.001 2°55.447 349.1 -999 239 -999
2007-04-16 09:07:38 51°14.001 2°55.448 349.1 -999 243 -999
2007-04-16 09:07:43 51°14.001 2°55.448 349.1 -999 95 -999
2007-04-16 09:07:48 51°14.001 2°55.448 349.1 -999 31 -999
2007-04-16 09:07:53 51°14.001 2°55.448 349.1 -999 12 -999
2007-04-16 09:07:58 51°14.001 2°55.448 349.1 -999 6 -999
2007-04-16 09:08:03 51°14.001 2°55.448 349.1 -999 39 -999
2007-04-16 09:08:08 51°14.001 2°55.448 349.1 -999 356 -999
2007-04-16 09:08:13 51°14.001 2°55.448 349.2 -999 31 -999
2007-04-16 09:08:18 51°14.001 2°55.448 349.4 -999 34 -999
2007-04-16 09:08:23 51°14.001 2°55.448 349.6 -999 340 -999
2007-04-16 09:08:28 51°14.001 2°55.448 349.6 -999 24 -999
2007-04-16 09:08:33 51°14.001 2°55.449 349.6 -999 80 -999
2007-04-16 09:08:38 51°14.001 2°55.448 349.6 -999 186 -999
2007-04-16 09:08:43 51°14.001 2°55.449 349.6 -999 167 -999
2007-04-16 09:08:48 51°14.001 2°55.449 349.6 -999 221 -999
2007-04-16 09:08:53 51°14.001 2°55.448 349.6 -999 214 -999
2007-04-16 09:08:58 51°14.001 2°55.448 349.6 -999 265 -999
2007-04-16 09:09:03 51°14.001 2°55.449 349.6 -999 92 -999
2007-04-16 09:09:08 51°14.001 2°55.448 349.6 -999 355 -999
2007-04-16 09:09:13 51°14.001 2°55.448 349.6 -999 47 -999
2007-04-16 09:09:18 51°14.001 2°55.448 349.6 -999 109 -999
2007-04-16 09:09:23 51°14.001 2°55.448 349.6 -999 128 -999
2007-04-16 09:09:28 51°14.001 2°55.448 349.6 -999 89 -999
2007-04-16 09:09:33 51°14.001 2°55.448 349.5 -999 238 -999
2007-04-16 09:09:38 51°14.001 2°55.448 349.5 0.1 75 -999
2007-04-16 09:09:43 51°14.001 2°55.448 349.5 -999 146 -999
2007-04-16 09:09:48 51°14.001 2°55.448 349.5 0.1 41 -999
2007-04-16 09:09:53 51°14.001 2°55.448 349.6 0.1 266 -999
2007-04-16 09:09:58 51°14.001 2°55.448 349.7 0.1 56 -999
2007-04-16 09:10:03 51°14.002 2°55.449 349.7 -999 245 -999
2007-04-16 09:10:08 51°14.003 2°55.45 349.6 -999 91 -999
2007-04-16 09:10:13 51°14.003 2°55.45 349.5 0.1 239 -999
2007-04-16 09:10:18 51°14.003 2°55.449 349.5 -999 133 -999
2007-04-16 09:10:23 51°14.003 2°55.449 349.5 -999 249 -999
2007-04-16 09:10:28 51°14.003 2°55.449 349.5 -999 204 -999
2007-04-16 09:10:33 51°14.003 2°55.449 349.6 -999 200 -999
2007-04-16 09:10:38 51°14.003 2°55.449 349.6 -999 24 -999
2007-04-16 09:10:43 51°14.003 2°55.449 349.6 -999 71 -999
2007-04-16 09:10:48 51°14.003 2°55.449 349.6 -999 236 -999
2007-04-16 09:10:53 51°14.003 2°55.449 349.5 -999 93 -999
2007-04-16 09:10:58 51°14.003 2°55.449 349.5 -999 243 -999
2007-04-16 09:11:03 51°14.003 2°55.449 349.5 0.1 70 -999
2007-04-16 09:11:08 51°14.003 2°55.449 349.5 -999 262 -999
2007-04-16 09:11:13 51°14.004 2°55.45 349.4 -999 56 -999
2007-04-16 09:11:18 51°14.004 2°55.451 349.3 -999 215 -999
2007-04-16 09:11:23 51°14.004 2°55.45 349.2 -999 209 -999
2007-04-16 09:11:28 51°14.003 2°55.449 349.1 -999 145 -999
2007-04-16 09:11:34 51°14.003 2°55.449 349.1 -999 164 -999
2007-04-16 09:11:38 51°14.003 2°55.449 349.1 -999 241 -999
2007-04-16 09:11:43 51°14.003 2°55.449 349.1 -999 32 -999
2007-04-16 09:11:48 51°14.003 2°55.449 349.1 -999 52 -999
2007-04-16 09:11:53 51°14.003 2°55.449 349.1 -999 226 -999
2007-04-16 09:11:58 51°14.002 2°55.448 349.1 -999 164 -999
2007-04-16 09:12:03 51°14.002 2°55.448 349.1 -999 185 -999
2007-04-16 09:12:08 51°14.002 2°55.447 349.1 -999 153 -999
2007-04-16 09:12:13 51°14.002 2°55.448 349.1 -999 26 -999
2007-04-16 09:12:18 51°14.002 2°55.448 349.1 -999 54 -999
2007-04-16 09:12:23 51°14.003 2°55.448 349.1 -999 46 -999
2007-04-16 09:12:28 51°14.003 2°55.449 349.1 -999 52 -999
2007-04-16 09:12:33 51°14.003 2°55.449 349.1 -999 116 -999
2007-04-16 09:12:38 51°14.003 2°55.449 349.1 -999 224 -999
2007-04-16 09:12:43 51°14.003 2°55.449 349.1 -999 288 -999
2007-04-16 09:12:48 51°14.003 2°55.449 349.1 0.1 59 -999
2007-04-16 09:12:53 51°14.003 2°55.449 349.1 -999 305 -999
2007-04-16 09:12:58 51°14.003 2°55.449 349.1 -999 177 -999
2007-04-16 09:13:03 51°14.003 2°55.449 349.1 -999 230 -999
2007-04-16 09:13:08 51°14.003 2°55.449 349.1 -999 16 -999
2007-04-16 09:13:13 51°14.003 2°55.449 349.1 -999 57 -999
2007-04-16 09:13:18 51°14.003 2°55.449 349.1 -999 47 -999
2007-04-16 09:13:23 51°14.003 2°55.449 349.1 -999 31 -999
2007-04-16 09:13:28 51°14.003 2°55.449 349.1 -999 55 -999
2007-04-16 09:13:33 51°14.004 2°55.449 349.1 -999 267 -999
2007-04-16 09:13:38 51°14.004 2°55.45 349.1 -999 76 -999
2007-04-16 09:13:43 51°14.004 2°55.45 349.1 -999 125 -999
2007-04-16 09:13:48 51°14.004 2°55.45 349.1 -999 221 -999
2007-04-16 09:13:53 51°14.004 2°55.45 349.1 -999 283 -999
2007-04-16 09:13:58 51°14.004 2°55.45 349.1 -999 97 -999
2007-04-16 09:14:03 51°14.004 2°55.45 349.1 -999 92 -999
2007-04-16 09:14:08 51°14.004 2°55.451 349.1 -999 81 -999
2007-04-16 09:14:13 51°14.004 2°55.451 349.1 -999 331 -999
2007-04-16 09:14:18 51°14.004 2°55.451 349.1 -999 68 -999
2007-04-16 09:14:23 51°14.004 2°55.451 349.3 -999 50 -999
2007-04-16 09:14:28 51°14.004 2°55.451 349.4 -999 84 -999
2007-04-16 09:14:33 51°14.004 2°55.451 349.4 -999 232 -999
2007-04-16 09:14:38 51°14.004 2°55.451 349.4 -999 121 -999
2007-04-16 09:14:43 51°14.004 2°55.451 349.4 -999 222 -999
2007-04-16 09:14:48 51°14.004 2°55.451 349.3 -999 286 -999
2007-04-16 09:14:53 51°14.004 2°55.451 349.3 -999 255 -999
2007-04-16 09:14:58 51°14.004 2°55.451 349.2 -999 146 -999
2007-04-16 09:15:03 51°14.004 2°55.451 349.2 -999 131 -999
2007-04-16 09:15:08 51°14.004 2°55.451 349.2 -999 350 -999
2007-04-16 09:15:13 51°14.004 2°55.451 349.2 -999 71 -999
2007-04-16 09:15:18 51°14.004 2°55.451 349.2 -999 248 -999
2007-04-16 09:15:23 51°14.004 2°55.451 349.2 -999 91 -999
2007-04-16 09:15:28 51°14.004 2°55.451 349.2 -999 222 -999
2007-04-16 09:15:33 51°14.004 2°55.451 349.2 -999 137 -999
2007-04-16 09:15:38 51°14.004 2°55.451 349.2 -999 255 -999
2007-04-16 09:15:43 51°14.004 2°55.451 349.1 -999 118 -999
2007-04-16 09:15:48 51°14.004 2°55.451 349.1 -999 19 -999
2007-04-16 09:15:53 51°14.004 2°55.451 349.1 -999 145 -999
2007-04-16 09:15:58 51°14.004 2°55.451 349.1 -999 87 -999
2007-04-16 09:16:03 51°14.004 2°55.451 349.2 -999 329 -999
2007-04-16 09:16:08 51°14.004 2°55.451 349.3 -999 52 -999
2007-04-16 09:16:13 51°14.004 2°55.451 349.3 -999 111 -999
2007-04-16 09:16:18 51°14.004 2°55.451 349.3 -999 118 -999
2007-04-16 09:16:23 51°14.004 2°55.451 349.3 -999 247 -999
2007-04-16 09:16:28 51°14.004 2°55.451 349.3 -999 162 -999
2007-04-16 09:16:33 51°14.004 2°55.451 349.2 -999 271 -999
2007-04-16 09:16:38 51°14.004 2°55.451 349.2 -999 268 -999
2007-04-16 09:16:43 51°14.004 2°55.451 349.2 -999 108 -999
2007-04-16 09:16:48 51°14.004 2°55.451 349.2 -999 327 -999
2007-04-16 09:16:53 51°14.004 2°55.451 349.1 -999 78 -999
2007-04-16 09:16:58 51°14.004 2°55.451 349.1 -999 140 -999
2007-04-16 09:17:03 51°14.004 2°55.451 349.1 -999 245 -999
2007-04-16 09:17:08 51°14.004 2°55.451 349.1 -999 163 -999
2007-04-16 09:17:13 51°14.004 2°55.451 349.1 -999 348 -999
2007-04-16 09:17:18 51°14.004 2°55.451 349.1 -999 131 -999
2007-04-16 09:17:24 51°14.004 2°55.451 349.1 -999 76 -999
2007-04-16 09:17:28 51°14.003 2°55.45 349.1 -999 312 -999
2007-04-16 09:17:33 51°14.004 2°55.451 349.1 -999 33 -999
2007-04-16 09:17:38 51°14.004 2°55.45 349.2 0.1 298 -999
2007-04-16 09:17:43 51°14.003 2°55.45 349.4 -999 331 -999
2007-04-16 09:17:48 51°14.003 2°55.449 349.6 -999 38 -999
2007-04-16 09:17:53 51°14.003 2°55.449 349.6 -999 79 -999
2007-04-16 09:17:58 51°14.003 2°55.449 349.6 -999 171 -999
2007-04-16 09:18:03 51°14.003 2°55.449 349.6 -999 130 -999
2007-04-16 09:18:08 51°14.003 2°55.449 349.6 -999 284 -999
2007-04-16 09:18:13 51°14.003 2°55.449 349.5 -999 144 -999
2007-04-16 09:18:18 51°14.003 2°55.449 349.5 -999 299 -999
2007-04-16 09:18:23 51°14.003 2°55.449 349.5 -999 227 -999
2007-04-16 09:18:28 51°14.003 2°55.449 349.5 -999 329 -999
2007-04-16 09:18:33 51°14.003 2°55.45 349.6 -999 141 -999
2007-04-16 09:18:38 51°14.003 2°55.45 349.6 -999 226 -999
2007-04-16 09:18:43 51°14.003 2°55.45 349.5 -999 276 -999
2007-04-16 09:18:48 51°14.003 2°55.45 349.4 -999 253 -999
2007-04-16 09:18:53 51°14.003 2°55.45 349.3 -999 247 -999
2007-04-16 09:18:58 51°14.004 2°55.45 349.3 -999 136 -999
2007-04-16 09:19:03 51°14.004 2°55.45 349.2 -999 176 -999
2007-04-16 09:19:08 51°14.004 2°55.45 349.2 -999 127 -999
2007-04-16 09:19:13 51°14.004 2°55.451 349.1 -999 298 -999
2007-04-16 09:19:18 51°14.004 2°55.451 349.1 -999 84 -999
2007-04-16 09:19:23 51°14.004 2°55.451 349.1 -999 310 -999
2007-04-16 09:19:28 51°14.004 2°55.451 349.1 -999 59 -999
2007-04-16 09:19:33 51°14.004 2°55.451 349.1 -999 3 -999
2007-04-16 09:19:38 51°14.004 2°55.451 349.1 -999 164 -999
2007-04-16 09:19:43 51°14.004 2°55.451 349.1 -999 32 -999
2007-04-16 09:19:48 51°14.004 2°55.451 349.1 -999 291 -999
2007-04-16 09:19:53 51°14.004 2°55.452 349.1 -999 11 -999
2007-04-16 09:19:58 51°14.004 2°55.452 349.1 -999 303 -999
2007-04-16 09:20:03 51°14.004 2°55.452 349.1 -999 160 -999
2007-04-16 09:20:08 51°14.004 2°55.452 349.1 -999 277 -999
2007-04-16 09:20:13 51°14.004 2°55.452 349.1 -999 279 -999
2007-04-16 09:20:18 51°14.004 2°55.452 349.1 -999 260 -999
2007-04-16 09:20:23 51°14.004 2°55.451 349.1 -999 298 -999
2007-04-16 09:20:28 51°14.004 2°55.451 349.1 -999 115 -999
2007-04-16 09:20:33 51°14.004 2°55.451 349.1 -999 297 -999
2007-04-16 09:20:38 51°14.004 2°55.451 349.1 -999 272 -999
2007-04-16 09:20:43 51°14.004 2°55.451 349.1 -999 94 -999
2007-04-16 09:20:48 51°14.004 2°55.451 349.1 -999 252 -999
2007-04-16 09:20:53 51°14.004 2°55.451 349.1 -999 296 -999
2007-04-16 09:20:59 51°14.004 2°55.451 349.1 -999 77 -999
2007-04-16 09:21:03 51°14.004 2°55.451 349.1 -999 317 -999
2007-04-16 09:21:08 51°14.004 2°55.451 349.1 -999 290 -999
2007-04-16 09:21:13 51°14.004 2°55.451 349.1 -999 325 -999
2007-04-16 09:21:18 51°14.004 2°55.451 349.1 -999 242 -999
2007-04-16 09:21:23 51°14.004 2°55.451 349.1 -999 110 -999
2007-04-16 09:21:28 51°14.004 2°55.451 349.1 -999 103 -999
2007-04-16 09:21:33 51°14.004 2°55.451 349.1 -999 286 -999
2007-04-16 09:21:38 51°14.003 2°55.451 349.1 -999 271 -999
2007-04-16 09:21:43 51°14.003 2°55.451 349.1 -999 57 -999
2007-04-16 09:21:48 51°14.003 2°55.451 349.1 -999 117 -999
2007-04-16 09:21:53 51°14.003 2°55.451 349.1 -999 93 -999
2007-04-16 09:21:58 51°14.003 2°55.451 349.1 -999 96 -999
2007-04-16 09:22:03 51°14.003 2°55.451 349.1 -999 345 -999
2007-04-16 09:22:08 51°14.003 2°55.451 349.2 -999 329 -999
2007-04-16 09:22:13 51°14.003 2°55.451 349.4 -999 25 -999
2007-04-16 09:22:18 51°14.003 2°55.451 349.5 0.1 28 -999
2007-04-16 09:22:23 51°14.003 2°55.451 349.6 -999 325 -999
2007-04-16 09:22:28 51°14.004 2°55.451 349.6 -999 283 -999
2007-04-16 09:22:33 51°14.004 2°55.451 349.7 -999 271 -999
2007-04-16 09:22:38 51°14.004 2°55.451 349.7 -999 276 -999
2007-04-16 09:22:43 51°14.003 2°55.451 349.7 -999 118 -999
2007-04-16 09:22:48 51°14.003 2°55.451 349.7 -999 137 -999
2007-04-16 09:22:53 51°14.003 2°55.451 349.7 -999 101 -999
2007-04-16 09:22:58 51°14.003 2°55.451 349.7 -999 103 -999
2007-04-16 09:23:03 51°14.003 2°55.451 349.7 -999 81 -999
2007-04-16 09:23:08 51°14.003 2°55.451 349.7 -999 37 -999
2007-04-16 09:23:13 51°14.003 2°55.451 349.7 -999 275 -999
2007-04-16 09:23:18 51°14.003 2°55.451 349.7 -999 260 -999
2007-04-16 09:23:23 51°14.003 2°55.451 349.7 -999 122 -999
2007-04-16 09:23:28 51°14.003 2°55.451 349.7 -999 258 -999
2007-04-16 09:23:33 51°14.003 2°55.451 349.7 -999 315 -999
2007-04-16 09:23:38 51°14.003 2°55.451 349.7 -999 205 -999
2007-04-16 09:23:43 51°14.004 2°55.451 349.7 -999 27 -999
2007-04-16 09:23:48 51°14.004 2°55.451 349.7 -999 92 -999
2007-04-16 09:23:53 51°14.004 2°55.451 349.7 -999 253 -999
2007-04-16 09:23:58 51°14.004 2°55.451 349.7 -999 338 -999
2007-04-16 09:24:03 51°14.004 2°55.451 349.7 -999 247 -999
2007-04-16 09:24:08 51°14.004 2°55.451 349.7 -999 78 -999
2007-04-16 09:24:13 51°14.004 2°55.451 349.7 -999 87 -999
2007-04-16 09:24:18 51°14.004 2°55.451 349.7 -999 2 -999
2007-04-16 09:24:23 51°14.004 2°55.451 349.7 -999 2 -999
2007-04-16 09:24:28 51°14.004 2°55.451 349.7 -999 218 -999
2007-04-16 09:24:33 51°14.004 2°55.451 349.7 -999 258 -999
2007-04-16 09:24:38 51°14.004 2°55.451 349.7 -999 254 -999
2007-04-16 09:24:43 51°14.004 2°55.451 349.7 -999 146 -999
2007-04-16 09:24:48 51°14.003 2°55.451 349.7 -999 191 -999
2007-04-16 09:24:53 51°14.004 2°55.451 349.6 -999 60 -999
2007-04-16 09:24:58 51°14.004 2°55.452 349.6 -999 82 -999
2007-04-16 09:25:03 51°14.004 2°55.452 349.6 -999 325 -999
2007-04-16 09:25:08 51°14.004 2°55.452 349.6 -999 238 -999
2007-04-16 09:25:13 51°14.004 2°55.452 349.6 -999 247 -999
2007-04-16 09:25:18 51°14.004 2°55.452 349.5 -999 128 -999
2007-04-16 09:25:23 51°14.004 2°55.452 349.3 -999 247 -999
2007-04-16 09:25:28 51°14.004 2°55.452 349.3 0.1 242 -999
2007-04-16 09:25:33 51°14.004 2°55.452 349.2 -999 183 -999
2007-04-16 09:25:38 51°14.004 2°55.452 349.1 -999 79 -999
2007-04-16 09:25:43 51°14.004 2°55.452 349.1 -999 159 -999
2007-04-16 09:25:48 51°14.004 2°55.452 349.1 -999 173 -999
2007-04-16 09:25:53 51°14.004 2°55.452 349.1 -999 50 -999
2007-04-16 09:25:58 51°14.004 2°55.452 349.1 -999 175 -999
2007-04-16 09:26:03 51°14.004 2°55.452 349.1 -999 298 -999
2007-04-16 09:26:08 51°14.004 2°55.452 349.1 -999 53 -999
2007-04-16 09:26:13 51°14.004 2°55.452 349.1 -999 104 -999
2007-04-16 09:26:18 51°14.004 2°55.452 349.1 -999 161 -999
2007-04-16 09:26:23 51°14.003 2°55.452 349.1 -999 74 -999
2007-04-16 09:26:28 51°14.003 2°55.452 349 -999 218 -999
2007-04-16 09:26:33 51°14.004 2°55.452 349 -999 328 -999
2007-04-16 09:26:38 51°14.004 2°55.452 349 -999 52 -999
2007-04-16 09:26:43 51°14.003 2°55.452 349 -999 172 -999
2007-04-16 09:26:48 51°14.004 2°55.452 349 -999 81 -999
2007-04-16 09:26:53 51°14.004 2°55.452 349 -999 225 -999
2007-04-16 09:26:58 51°14.004 2°55.452 349 -999 205 -999
2007-04-16 09:27:03 51°14.004 2°55.452 349 -999 37 -999
2007-04-16 09:27:08 51°14.004 2°55.452 349 -999 44 -999
2007-04-16 09:27:13 51°14.004 2°55.452 349 -999 240 -999
2007-04-16 09:27:18 51°14.004 2°55.452 349 -999 219 -999
2007-04-16 09:27:23 51°14.004 2°55.452 349 -999 284 -999
2007-04-16 09:27:28 51°14.004 2°55.452 349 -999 104 -999
2007-04-16 09:27:33 51°14.004 2°55.452 349 -999 61 -999
2007-04-16 09:27:38 51°14.004 2°55.452 349 -999 244 -999
2007-04-16 09:27:43 51°14.004 2°55.452 349 -999 190 -999
2007-04-16 09:27:48 51°14.004 2°55.452 349 -999 234 -999
2007-04-16 09:27:53 51°14.004 2°55.452 349 -999 231 -999
2007-04-16 09:27:58 51°14.004 2°55.452 348.9 -999 244 -999
2007-04-16 09:28:03 51°14.004 2°55.452 348.9 -999 127 -999
2007-04-16 09:28:08 51°14.004 2°55.452 348.9 -999 253 -999
2007-04-16 09:28:13 51°14.004 2°55.452 348.9 -999 302 -999
2007-04-16 09:28:18 51°14.004 2°55.452 348.9 -999 35 -999
2007-04-16 09:28:23 51°14.004 2°55.452 349 -999 41 -999
2007-04-16 09:28:29 51°14.004 2°55.452 349.1 -999 47 -999
2007-04-16 09:28:33 51°14.004 2°55.452 349.1 -999 97 -999
2007-04-16 09:28:38 51°14.004 2°55.452 349.1 -999 256 -999
2007-04-16 09:28:43 51°14.004 2°55.452 349.1 -999 102 -999
2007-04-16 09:28:48 51°14.004 2°55.452 349.1 -999 221 -999
2007-04-16 09:28:53 51°14.004 2°55.452 349 -999 209 -999
2007-04-16 09:28:58 51°14.004 2°55.452 349 -999 344 -999
2007-04-16 09:29:03 51°14.004 2°55.452 349 -999 334 -999
2007-04-16 09:29:08 51°14.004 2°55.452 349 -999 61 -999
2007-04-16 09:29:13 51°14.004 2°55.452 349 -999 81 -999
2007-04-16 09:29:18 51°14.004 2°55.452 349 -999 210 -999
2007-04-16 09:29:23 51°14.004 2°55.452 348.9 -999 192 -999
2007-04-16 09:29:28 51°14.004 2°55.452 348.9 -999 67 -999
2007-04-16 09:29:33 51°14.004 2°55.452 348.9 -999 276 -999
2007-04-16 09:29:38 51°14.004 2°55.452 348.9 -999 152 -999
2007-04-16 09:29:43 51°14.004 2°55.452 348.9 -999 256 -999
2007-04-16 09:29:48 51°14.004 2°55.452 348.9 -999 21 -999
2007-04-16 09:29:53 51°14.004 2°55.452 348.9 -999 5 -999
2007-04-16 09:29:58 51°14.004 2°55.452 348.9 -999 348 -999
2007-04-16 09:30:03 51°14.004 2°55.452 349 -999 93 -999
2007-04-16 09:30:08 51°14.004 2°55.452 349 -999 199 -999
2007-04-16 09:30:13 51°14.004 2°55.452 348.9 -999 205 -999
2007-04-16 09:30:18 51°14.004 2°55.452 348.9 -999 74 -999
2007-04-16 09:30:23 51°14.004 2°55.452 348.9 -999 230 -999
2007-04-16 09:30:28 51°14.004 2°55.452 348.9 -999 246 -999
2007-04-16 09:30:33 51°14.004 2°55.452 348.9 -999 13 -999
2007-04-16 09:30:38 51°14.004 2°55.452 348.8 -999 39 -999
2007-04-16 09:30:43 51°14.004 2°55.452 348.8 -999 39 -999
2007-04-16 09:30:48 51°14.004 2°55.452 348.9 -999 45 -999
2007-04-16 09:30:53 51°14.004 2°55.452 349 -999 66 -999
2007-04-16 09:30:58 51°14.004 2°55.452 349.1 -999 46 -999
2007-04-16 09:31:03 51°14.004 2°55.452 349.2 -999 28 -999
2007-04-16 09:31:08 51°14.004 2°55.452 349.2 -999 6 -999
2007-04-16 09:31:13 51°14.004 2°55.452 349.2 -999 233 -999
2007-04-16 09:31:18 51°14.004 2°55.452 349.2 -999 140 -999
2007-04-16 09:31:23 51°14.004 2°55.452 349.1 -999 217 -999
2007-04-16 09:31:29 51°14.005 2°55.453 349 -999 262 -999
2007-04-16 09:31:33 51°14.004 2°55.452 348.9 -999 236 -999
2007-04-16 09:31:38 51°14.004 2°55.452 348.9 -999 139 -999
2007-04-16 09:31:43 51°14.004 2°55.451 348.9 -999 172 -999
2007-04-16 09:31:48 51°14.003 2°55.451 348.9 -999 166 -999
2007-04-16 09:31:53 51°14.003 2°55.451 348.8 -999 259 -999
2007-04-16 09:31:58 51°14.003 2°55.451 348.8 -999 218 -999
2007-04-16 09:32:03 51°14.003 2°55.451 348.8 -999 188 -999
2007-04-16 09:32:08 51°14.005 2°55.453 348.8 -999 90 -999
2007-04-16 09:32:13 51°14.005 2°55.452 348.8 -999 69 -999
2007-04-16 09:32:18 51°14.004 2°55.452 348.8 -999 71 -999
2007-04-16 09:32:23 51°14.005 2°55.452 348.8 -999 210 -999
2007-04-16 09:32:28 51°14.005 2°55.453 349 0.1 63 -999
2007-04-16 09:32:33 51°14.005 2°55.453 349.1 -999 27 -999
2007-04-16 09:32:38 51°14.005 2°55.452 349.1 -999 316 -999
2007-04-16 09:32:43 51°14.005 2°55.452 349.1 -999 35 -999
2007-04-16 09:32:48 51°14.004 2°55.452 349.2 -999 212 -999
2007-04-16 09:32:53 51°14.004 2°55.451 349.2 -999 184 -999
2007-04-16 09:32:58 51°14.004 2°55.451 349.1 -999 183 -999
2007-04-16 09:33:03 51°14.004 2°55.451 349.1 -999 129 -999
2007-04-16 09:33:08 51°14.004 2°55.451 349 -999 283 -999
2007-04-16 09:33:13 51°14.004 2°55.45 348.9 -999 240 -999
2007-04-16 09:33:18 51°14.004 2°55.451 348.9 -999 205 -999
2007-04-16 09:33:23 51°14.004 2°55.45 348.8 -999 250 -999
2007-04-16 09:33:28 51°14.004 2°55.451 348.8 -999 45 -999
2007-04-16 09:33:33 51°14.004 2°55.45 348.8 -999 278 -999
2007-04-16 09:33:38 51°14.004 2°55.45 348.8 -999 226 -999
2007-04-16 09:33:43 51°14.004 2°55.45 348.7 -999 130 -999
2007-04-16 09:33:48 51°14.004 2°55.45 348.7 -999 6 -999
2007-04-16 09:33:53 51°14.004 2°55.451 348.7 -999 135 -999
2007-04-16 09:33:58 51°14.004 2°55.451 348.7 -999 237 -999
2007-04-16 09:34:03 51°14.004 2°55.451 348.6 -999 164 -999
2007-04-16 09:34:08 51°14.004 2°55.451 348.6 -999 225 -999
2007-04-16 09:34:13 51°14.004 2°55.45 348.6 -999 77 -999
2007-04-16 09:34:19 51°14.004 2°55.451 348.6 -999 70 -999
2007-04-16 09:34:23 51°14.004 2°55.451 348.6 -999 272 -999
2007-04-16 09:34:28 51°14.004 2°55.451 348.6 -999 105 -999
2007-04-16 09:34:33 51°14.005 2°55.451 348.6 -999 255 -999
2007-04-16 09:34:38 51°14.005 2°55.451 348.6 -999 238 -999
2007-04-16 09:34:43 51°14.004 2°55.451 348.5 -999 157 -999
2007-04-16 09:34:48 51°14.004 2°55.451 348.5 -999 208 -999
2007-04-16 09:34:53 51°14.004 2°55.451 348.5 -999 87 -999
2007-04-16 09:34:58 51°14.004 2°55.45 348.5 -999 50 -999
2007-04-16 09:35:03 51°14.004 2°55.45 348.5 -999 214 -999
2007-04-16 09:35:08 51°14.004 2°55.45 348.5 -999 27 -999
2007-04-16 09:35:13 51°14.004 2°55.45 348.5 -999 69 -999
2007-04-16 09:35:18 51°14.004 2°55.45 348.5 -999 194 -999
2007-04-16 09:35:23 51°14.004 2°55.45 348.5 -999 211 -999
2007-04-16 09:35:28 51°14.003 2°55.45 348.5 -999 151 -999
2007-04-16 09:35:33 51°14.003 2°55.45 348.5 -999 218 -999
2007-04-16 09:35:38 51°14.003 2°55.45 348.4 -999 143 -999
2007-04-16 09:35:43 51°14.003 2°55.45 348.4 -999 73 -999
2007-04-16 09:35:48 51°14.003 2°55.45 348.4 -999 178 -999
2007-04-16 09:35:53 51°14.003 2°55.45 348.4 -999 196 -999
2007-04-16 09:35:58 51°14.003 2°55.45 348.5 -999 347 -999
2007-04-16 09:36:03 51°14.003 2°55.45 348.5 -999 131 -999
2007-04-16 09:36:08 51°14.003 2°55.45 348.5 -999 111 -999
2007-04-16 09:36:13 51°14.003 2°55.45 348.5 -999 116 -999
2007-04-16 09:36:18 51°14.003 2°55.45 348.5 -999 246 -999
2007-04-16 09:36:23 51°14.003 2°55.45 348.5 -999 54 -999
2007-04-16 09:36:28 51°14.003 2°55.45 348.5 -999 18 -999
2007-04-16 09:36:33 51°14.003 2°55.45 348.5 -999 24 -999
2007-04-16 09:36:38 51°14.003 2°55.45 348.5 -999 200 -999
2007-04-16 09:36:43 51°14.003 2°55.45 348.5 -999 242 -999
2007-04-16 09:36:48 51°14.003 2°55.45 348.6 -999 347 -999
2007-04-16 09:36:53 51°14.003 2°55.45 348.6 -999 355 -999
2007-04-16 09:36:58 51°14.003 2°55.45 348.6 -999 340 -999
2007-04-16 09:37:03 51°14.003 2°55.45 348.6 -999 90 -999
2007-04-16 09:37:08 51°14.003 2°55.45 348.6 -999 105 -999
2007-04-16 09:37:13 51°14.003 2°55.45 348.7 -999 359 -999
2007-04-16 09:37:18 51°14.003 2°55.45 348.7 -999 300 -999
2007-04-16 09:37:23 51°14.003 2°55.45 348.7 -999 12 -999
2007-04-16 09:37:28 51°14.003 2°55.451 348.7 -999 228 -999
2007-04-16 09:37:33 51°14.005 2°55.452 348.7 -999 96 -999
2007-04-16 09:37:38 51°14.005 2°55.452 348.8 -999 217 -999
2007-04-16 09:37:43 51°14.006 2°55.453 348.8 -999 18 -999
2007-04-16 09:37:48 51°14.007 2°55.454 348.8 -999 84 -999
2007-04-16 09:37:53 51°14.007 2°55.454 348.8 -999 150 -999
2007-04-16 09:37:58 51°14.007 2°55.454 348.8 -999 83 -999
2007-04-16 09:38:03 51°14.007 2°55.454 348.9 -999 30 -999
2007-04-16 09:38:08 51°14.006 2°55.453 349 -999 307 -999
2007-04-16 09:38:13 51°14.006 2°55.453 349.1 -999 51 -999
2007-04-16 09:38:18 51°14.006 2°55.453 349.1 -999 332 -999
2007-04-16 09:38:23 51°14.005 2°55.452 349.1 -999 29 -999
2007-04-16 09:38:28 51°14.004 2°55.452 349.1 -999 292 -999
2007-04-16 09:38:33 51°14.003 2°55.451 349.1 -999 256 -999
2007-04-16 09:38:38 51°14.003 2°55.45 349.1 -999 57 -999
2007-04-16 09:38:43 51°14.002 2°55.45 349.1 -999 168 -999
2007-04-16 09:38:48 51°14.003 2°55.45 349.1 -999 129 -999
2007-04-16 09:38:53 51°14.003 2°55.45 349.1 -999 329 -999
2007-04-16 09:38:58 51°14.003 2°55.45 349 -999 193 -999
2007-04-16 09:39:03 51°14.003 2°55.451 349 -999 120 -999
2007-04-16 09:39:08 51°14.003 2°55.451 349 -999 187 -999
2007-04-16 09:39:13 51°14.003 2°55.451 349 -999 210 -999
2007-04-16 09:39:18 51°14.003 2°55.451 348.9 -999 24 -999
2007-04-16 09:39:23 51°14.003 2°55.451 348.8 -999 312 -999
2007-04-16 09:39:28 51°14.003 2°55.451 348.8 -999 258 -999
2007-04-16 09:39:33 51°14.003 2°55.451 348.8 -999 262 -999
2007-04-16 09:39:38 51°14.003 2°55.451 348.7 -999 224 -999
2007-04-16 09:39:43 51°14.003 2°55.451 348.6 -999 175 -999
2007-04-16 09:39:48 51°14.003 2°55.451 348.3 0.1 213 -999
2007-04-16 09:39:53 51°14.003 2°55.451 348.1 0.1 174 -999
2007-04-16 09:39:58 51°14.003 2°55.451 348.1 -999 201 -999
2007-04-16 09:40:03 51°14.003 2°55.451 348.1 -999 342 -999
2007-04-16 09:40:08 51°14.003 2°55.451 348.1 -999 9 -999
2007-04-16 09:40:13 51°14.003 2°55.451 348.1 0.1 335 -999
2007-04-16 09:40:18 51°14.003 2°55.45 348.3 0.1 350 -999
2007-04-16 09:40:23 51°14.003 2°55.45 348.6 0.1 8 -999
2007-04-16 09:40:28 51°14.004 2°55.451 349.1 0.1 7 -999
2007-04-16 09:40:33 51°14.003 2°55.451 349.1 0.1 154 -999
2007-04-16 09:40:38 51°14.003 2°55.451 349.1 0.1 125 -999
2007-04-16 09:40:43 51°14.003 2°55.451 348.9 0.1 221 -999
2007-04-16 09:40:48 51°14.003 2°55.451 348.6 0.1 177 -999
2007-04-16 09:40:54 51°14.003 2°55.451 348.4 -999 196 -999
2007-04-16 09:40:58 51°14.003 2°55.451 348.3 0.1 249 -999
2007-04-16 09:41:03 51°14.003 2°55.451 348.2 -999 257 -999
2007-04-16 09:41:08 51°14.003 2°55.451 348.2 -999 30 -999
2007-04-16 09:41:13 51°14.003 2°55.451 348.3 -999 51 -999
2007-04-16 09:41:18 51°14.003 2°55.451 348.4 -999 291 -999
2007-04-16 09:41:23 51°14.003 2°55.451 348.4 -999 30 -999
2007-04-16 09:41:28 51°14.003 2°55.451 348.5 -999 333 -999
2007-04-16 09:41:33 51°14.003 2°55.451 348.5 -999 17 -999
2007-04-16 09:41:38 51°14.003 2°55.451 348.6 -999 6 -999
2007-04-16 09:41:43 51°14.003 2°55.451 348.6 -999 282 -999
2007-04-16 09:41:49 51°14.003 2°55.451 348.6 -999 125 -999
2007-04-16 09:41:53 51°14.003 2°55.451 348.6 -999 258 -999
2007-04-16 09:41:58 51°14.003 2°55.45 348.5 -999 3 -999
2007-04-16 09:42:03 51°14.003 2°55.45 348.5 -999 239 -999
2007-04-16 09:42:08 51°14.003 2°55.45 348.4 -999 236 -999
2007-04-16 09:42:13 51°14.003 2°55.45 348.4 -999 254 -999
2007-04-16 09:42:18 51°14.003 2°55.45 348.3 -999 208 -999
2007-04-16 09:42:23 51°14.003 2°55.45 348.3 -999 144 -999
2007-04-16 09:42:28 51°14.003 2°55.45 348.3 -999 257 -999
2007-04-16 09:42:33 51°14.002 2°55.45 348.3 -999 73 -999
2007-04-16 09:42:38 51°14.002 2°55.45 348.3 -999 41 -999
2007-04-16 09:42:43 51°14.002 2°55.45 348.3 -999 9 -999
2007-04-16 09:42:48 51°14.002 2°55.45 348.3 -999 245 -999
2007-04-16 09:42:53 51°14.002 2°55.45 348.3 -999 255 -999
2007-04-16 09:42:58 51°14.002 2°55.45 348.3 -999 93 -999
2007-04-16 09:43:03 51°14.003 2°55.45 348.3 -999 14 -999
2007-04-16 09:43:08 51°14.003 2°55.45 348.3 -999 162 -999
2007-04-16 09:43:13 51°14.003 2°55.45 348.2 -999 153 -999
2007-04-16 09:43:18 51°14.003 2°55.45 348.2 -999 184 -999
2007-04-16 09:43:23 51°14.003 2°55.45 348.1 -999 257 -999
2007-04-16 09:43:28 51°14.003 2°55.45 348.1 -999 252 -999
2007-04-16 09:43:33 51°14.003 2°55.45 348.1 -999 267 -999
2007-04-16 09:43:38 51°14.003 2°55.45 348.1 -999 124 -999
2007-04-16 09:43:43 51°14.003 2°55.45 348.1 -999 276 -999
2007-04-16 09:43:48 51°14.003 2°55.45 348.1 -999 300 -999
2007-04-16 09:43:53 51°14.003 2°55.45 348.1 -999 296 -999
2007-04-16 09:43:58 51°14.003 2°55.451 348.1 -999 197 -999
2007-04-16 09:44:04 51°14.003 2°55.451 348.1 -999 276 -999
2007-04-16 09:44:08 51°14.003 2°55.451 348.1 -999 77 -999
2007-04-16 09:44:13 51°14.004 2°55.451 348.1 -999 314 -999
2007-04-16 09:44:18 51°14.004 2°55.452 348.2 -999 334 -999
2007-04-16 09:44:23 51°14.005 2°55.452 348.3 0.1 1 -999
2007-04-16 09:44:29 51°14.005 2°55.452 348.5 0.1 17 -999
2007-04-16 09:44:33 51°14.005 2°55.452 348.9 0.1 8 -999
2007-04-16 09:44:38 51°14.005 2°55.452 349.1 -999 9 -999
2007-04-16 09:44:43 51°14.005 2°55.452 349.1 -999 124 -999
2007-04-16 09:44:48 51°14.005 2°55.452 349.1 -999 166 -999
2007-04-16 09:44:53 51°14.005 2°55.452 349.1 -999 59 -999
2007-04-16 09:44:58 51°14.005 2°55.452 349.1 -999 288 -999
2007-04-16 09:45:03 51°14.005 2°55.452 349.1 -999 231 -999
2007-04-16 09:45:08 51°14.005 2°55.452 349.1 -999 348 -999
2007-04-16 09:45:13 51°14.005 2°55.452 349.1 -999 44 -999
2007-04-16 09:45:18 51°14.005 2°55.452 349.1 -999 132 -999
2007-04-16 09:45:23 51°14.005 2°55.452 349.1 -999 251 -999
2007-04-16 09:45:28 51°14.005 2°55.452 349 -999 190 -999
2007-04-16 09:45:33 51°14.005 2°55.452 349 -999 147 -999
2007-04-16 09:45:38 51°14.005 2°55.452 349 -999 290 -999